sensor_id;sensor_type;location;lat;lon;timestamp;pressure;altitude;pressure_sealevel;temperature;humidity
73941;BME280;62294;48.554;10.202;2023-06-04T00:02:24;92940.84;;;10.11;100.00
73941;BME280;62294;48.554;10.202;2023-06-04T00:04:51;92957.28;;;10.13;100.00
73941;BME280;62294;48.554;10.202;2023-06-04T00:07:18;93007.31;;;10.00;100.00
73941;BME280;62294;48.554;10.202;2023-06-04T00:09:45;93033.13;;;9.95;100.00
73941;BME280;62294;48.554;10.202;2023-06-04T00:12:13;93051.00;;;9.89;100.00
73941;BME280;62294;48.554;10.202;2023-06-04T00:14:40;93071.41;;;9.89;100.00
73941;BME280;62294;48.554;10.202;2023-06-04T00:17:08;93098.84;;;9.79;100.00
73941;BME280;62294;48.554;10.202;2023-06-04T00:19:37;93110.75;;;9.82;100.00
73941;BME280;62294;48.554;10.202;2023-06-04T00:22:04;93186.78;;;9.68;100.00
73941;BME280;62294;48.554;10.202;2023-06-04T00:24:32;93213.75;;;9.75;100.00
73941;BME280;62294;48.554;10.202;2023-06-04T00:26:58;93223.00;;;9.77;100.00
73941;BME280;62294;48.554;10.202;2023-06-04T00:29:25;93250.22;;;9.64;100.00
73941;BME280;62294;48.554;10.202;2023-06-04T00:31:52;93256.31;;;9.65;100.00
73941;BME280;62294;48.554;10.202;2023-06-04T00:34:18;93275.97;;;9.59;100.00
73941;BME280;62294;48.554;10.202;2023-06-04T00:36:45;93307.56;;;9.55;100.00
73941;BME280;62294;48.554;10.202;2023-06-04T00:39:11;93306.56;;;9.51;100.00
73941;BME280;62294;48.554;10.202;2023-06-04T00:41:38;93343.09;;;9.54;100.00
73941;BME280;62294;48.554;10.202;2023-06-04T00:44:06;93401.19;;;9.56;100.00
73941;BME280;62294;48.554;10.202;2023-06-04T00:46:34;93407.84;;;9.48;100.00
73941;BME280;62294;48.554;10.202;2023-06-04T00:49:04;93525.03;;;9.45;100.00
73941;BME280;62294;48.554;10.202;2023-06-04T00:51:32;93621.03;;;9.37;100.00
73941;BME280;62294;48.554;10.202;2023-06-04T00:53:59;93663.47;;;9.32;100.00
73941;BME280;62294;48.554;10.202;2023-06-04T00:56:29;93695.56;;;9.31;100.00
73941;BME280;62294;48.554;10.202;2023-06-04T00:58:55;93722.34;;;9.24;100.00
73941;BME280;62294;48.554;10.202;2023-06-04T01:03:51;93777.44;;;9.22;100.00
73941;BME280;62294;48.554;10.202;2023-06-04T01:06:31;93783.28;;;9.24;100.00
73941;BME280;62294;48.554;10.202;2023-06-04T01:09:03;93829.91;;;9.25;100.00
73941;BME280;62294;48.554;10.202;2023-06-04T01:11:34;93882.66;;;9.11;100.00
73941;BME280;62294;48.554;10.202;2023-06-04T01:14:02;93914.69;;;9.05;100.00
73941;BME280;62294;48.554;10.202;2023-06-04T01:16:35;93934.56;;;9.02;100.00
73941;BME280;62294;48.554;10.202;2023-06-04T01:19:11;93948.84;;;9.01;100.00
73941;BME280;62294;48.554;10.202;2023-06-04T01:21:50;93969.22;;;8.91;100.00
73941;BME280;62294;48.554;10.202;2023-06-04T01:24:21;93977.69;;;8.93;100.00
73941;BME280;62294;48.554;10.202;2023-06-04T01:26:51;93988.84;;;8.95;100.00
73941;BME280;62294;48.554;10.202;2023-06-04T01:29:18;94003.19;;;8.99;100.00
73941;BME280;62294;48.554;10.202;2023-06-04T01:31:44;94042.34;;;8.97;100.00
73941;BME280;62294;48.554;10.202;2023-06-04T01:34:12;94041.81;;;8.95;100.00
73941;BME280;62294;48.554;10.202;2023-06-04T01:36:38;94071.50;;;8.97;100.00
73941;BME280;62294;48.554;10.202;2023-06-04T01:39:04;94074.69;;;8.94;100.00
73941;BME280;62294;48.554;10.202;2023-06-04T01:41:31;94090.03;;;8.92;100.00
73941;BME280;62294;48.554;10.202;2023-06-04T01:43:57;94092.72;;;9.02;100.00
73941;BME280;62294;48.554;10.202;2023-06-04T01:46:25;94172.97;;;8.97;100.00
73941;BME280;62294;48.554;10.202;2023-06-04T01:48:52;92461.09;;;8.92;100.00
73941;BME280;62294;48.554;10.202;2023-06-04T01:51:18;92463.63;;;8.97;100.00
73941;BME280;62294;48.554;10.202;2023-06-04T01:53:45;92475.31;;;8.96;100.00
73941;BME280;62294;48.554;10.202;2023-06-04T01:56:11;92489.22;;;8.88;100.00
73941;BME280;62294;48.554;10.202;2023-06-04T01:58:39;92515.13;;;8.77;100.00
73941;BME280;62294;48.554;10.202;2023-06-04T02:01:07;92536.38;;;8.72;100.00
73941;BME280;62294;48.554;10.202;2023-06-04T02:03:33;92521.78;;;8.75;100.00
73941;BME280;62294;48.554;10.202;2023-06-04T02:06:05;92524.63;;;8.65;100.00
73941;BME280;62294;48.554;10.202;2023-06-04T02:08:35;92512.47;;;8.64;100.00
73941;BME280;62294;48.554;10.202;2023-06-04T02:11:02;92529.53;;;8.57;100.00
73941;BME280;62294;48.554;10.202;2023-06-04T02:13:28;92532.25;;;8.52;100.00
73941;BME280;62294;48.554;10.202;2023-06-04T02:15:55;92511.56;;;8.54;100.00
73941;BME280;62294;48.554;10.202;2023-06-04T02:18:21;92507.56;;;8.57;100.00
73941;BME280;62294;48.554;10.202;2023-06-04T02:20:49;92509.09;;;8.44;100.00
73941;BME280;62294;48.554;10.202;2023-06-04T02:23:17;92503.31;;;8.42;100.00
73941;BME280;62294;48.554;10.202;2023-06-04T02:25:45;92511.13;;;8.34;100.00
73941;BME280;62294;48.554;10.202;2023-06-04T02:28:12;92515.72;;;8.28;100.00
73941;BME280;62294;48.554;10.202;2023-06-04T02:30:39;92510.94;;;8.30;100.00
73941;BME280;62294;48.554;10.202;2023-06-04T02:33:06;92513.63;;;8.25;100.00
73941;BME280;62294;48.554;10.202;2023-06-04T02:35:32;92511.63;;;8.17;100.00
73941;BME280;62294;48.554;10.202;2023-06-04T02:37:59;92515.16;;;8.13;100.00
73941;BME280;62294;48.554;10.202;2023-06-04T02:40:26;92518.09;;;8.11;100.00
73941;BME280;62294;48.554;10.202;2023-06-04T02:42:55;92495.38;;;8.24;100.00
73941;BME280;62294;48.554;10.202;2023-06-04T02:45:23;92490.78;;;8.16;100.00
73941;BME280;62294;48.554;10.202;2023-06-04T02:47:49;92491.66;;;8.11;100.00
73941;BME280;62294;48.554;10.202;2023-06-04T02:50:16;92475.41;;;8.18;100.00
73941;BME280;62294;48.554;10.202;2023-06-04T02:52:43;92482.66;;;8.12;100.00
73941;BME280;62294;48.554;10.202;2023-06-04T02:55:10;92491.22;;;8.04;100.00
73941;BME280;62294;48.554;10.202;2023-06-04T02:57:40;92507.84;;;7.91;100.00
73941;BME280;62294;48.554;10.202;2023-06-04T03:00:11;92510.25;;;7.87;100.00
73941;BME280;62294;48.554;10.202;2023-06-04T03:02:43;92510.00;;;7.89;100.00
73941;BME280;62294;48.554;10.202;2023-06-04T03:05:13;92515.53;;;7.87;100.00
73941;BME280;62294;48.554;10.202;2023-06-04T03:07:41;92511.63;;;7.85;100.00
73941;BME280;62294;48.554;10.202;2023-06-04T03:10:10;92508.22;;;7.84;100.00
73941;BME280;62294;48.554;10.202;2023-06-04T03:12:37;92504.28;;;7.82;100.00
73941;BME280;62294;48.554;10.202;2023-06-04T03:15:04;92502.69;;;7.81;100.00
73941;BME280;62294;48.554;10.202;2023-06-04T03:17:31;92499.00;;;7.82;100.00
73941;BME280;62294;48.554;10.202;2023-06-04T03:19:58;92499.00;;;7.82;100.00
73941;BME280;62294;48.554;10.202;2023-06-04T03:22:25;92515.97;;;7.76;100.00
73941;BME280;62294;48.554;10.202;2023-06-04T03:24:51;92525.63;;;7.67;100.00
73941;BME280;62294;48.554;10.202;2023-06-04T03:27:19;92542.44;;;7.57;100.00
73941;BME280;62294;48.554;10.202;2023-06-04T03:29:46;92543.00;;;7.54;100.00
73941;BME280;62294;48.554;10.202;2023-06-04T03:32:12;92538.06;;;7.48;100.00
73941;BME280;62294;48.554;10.202;2023-06-04T03:34:39;92533.47;;;7.53;100.00
73941;BME280;62294;48.554;10.202;2023-06-04T03:37:06;92515.78;;;7.54;100.00
73941;BME280;62294;48.554;10.202;2023-06-04T03:39:33;92495.13;;;7.56;100.00
73941;BME280;62294;48.554;10.202;2023-06-04T03:42:00;92472.88;;;7.62;100.00
73941;BME280;62294;48.554;10.202;2023-06-04T03:44:26;92450.56;;;7.68;100.00
73941;BME280;62294;48.554;10.202;2023-06-04T03:46:53;92448.50;;;7.65;100.00
73941;BME280;62294;48.554;10.202;2023-06-04T03:49:20;92457.00;;;7.62;100.00
73941;BME280;62294;48.554;10.202;2023-06-04T03:51:48;92461.88;;;7.55;100.00
73941;BME280;62294;48.554;10.202;2023-06-04T03:54:14;92440.06;;;7.63;100.00
73941;BME280;62294;48.554;10.202;2023-06-04T03:56:45;92446.44;;;7.62;100.00
73941;BME280;62294;48.554;10.202;2023-06-04T03:59:12;92435.50;;;7.68;100.00
73941;BME280;62294;48.554;10.202;2023-06-04T04:01:38;92424.56;;;7.75;100.00
73941;BME280;62294;48.554;10.202;2023-06-04T04:04:05;92418.22;;;7.89;100.00
73941;BME280;62294;48.554;10.202;2023-06-04T04:06:32;92417.53;;;7.84;100.00
73941;BME280;62294;48.554;10.202;2023-06-04T04:08:58;92422.06;;;7.97;100.00
73941;BME280;62294;48.554;10.202;2023-06-04T04:11:25;92415.81;;;8.07;100.00
73941;BME280;62294;48.554;10.202;2023-06-04T04:13:52;92414.56;;;8.18;100.00
73941;BME280;62294;48.554;10.202;2023-06-04T04:16:18;92415.25;;;8.23;100.00
73941;BME280;62294;48.554;10.202;2023-06-04T04:18:45;92421.66;;;8.36;100.00
73941;BME280;62294;48.554;10.202;2023-06-04T04:21:12;92442.53;;;8.37;100.00
73941;BME280;62294;48.554;10.202;2023-06-04T04:23:39;92451.34;;;8.46;100.00
73941;BME280;62294;48.554;10.202;2023-06-04T04:26:09;92472.81;;;8.45;100.00
73941;BME280;62294;48.554;10.202;2023-06-04T04:28:36;92518.75;;;8.35;100.00
73941;BME280;62294;48.554;10.202;2023-06-04T04:31:03;92528.63;;;8.48;100.00
73941;BME280;62294;48.554;10.202;2023-06-04T04:33:31;92555.84;;;8.49;100.00
73941;BME280;62294;48.554;10.202;2023-06-04T04:36:06;92554.72;;;8.69;100.00
73941;BME280;62294;48.554;10.202;2023-06-04T04:38:36;92581.59;;;8.76;100.00
73941;BME280;62294;48.554;10.202;2023-06-04T04:41:03;92596.44;;;8.90;100.00
73941;BME280;62294;48.554;10.202;2023-06-04T04:43:31;92609.19;;;9.02;100.00
73941;BME280;62294;48.554;10.202;2023-06-04T04:45:58;92621.31;;;9.21;100.00
73941;BME280;62294;48.554;10.202;2023-06-04T04:48:25;92648.88;;;9.34;100.00
73941;BME280;62294;48.554;10.202;2023-06-04T04:50:53;92667.75;;;9.46;100.00
73941;BME280;62294;48.554;10.202;2023-06-04T04:53:20;92694.56;;;9.58;100.00
73941;BME280;62294;48.554;10.202;2023-06-04T04:55:47;92730.13;;;9.71;100.00
73941;BME280;62294;48.554;10.202;2023-06-04T04:58:14;92759.38;;;9.79;100.00
73941;BME280;62294;48.554;10.202;2023-06-04T05:00:41;92788.47;;;9.98;100.00
73941;BME280;62294;48.554;10.202;2023-06-04T05:03:08;92843.88;;;9.99;100.00
73941;BME280;62294;48.554;10.202;2023-06-04T05:05:34;92871.84;;;10.11;100.00
73941;BME280;62294;48.554;10.202;2023-06-04T05:08:01;92927.03;;;10.09;100.00
73941;BME280;62294;48.554;10.202;2023-06-04T05:10:28;92930.00;;;10.39;100.00
73941;BME280;62294;48.554;10.202;2023-06-04T05:12:56;92917.94;;;10.74;100.00
73941;BME280;62294;48.554;10.202;2023-06-04T05:15:24;92958.44;;;10.93;100.00
73941;BME280;62294;48.554;10.202;2023-06-04T05:17:53;92941.66;;;11.47;100.00
73941;BME280;62294;48.554;10.202;2023-06-04T05:20:19;92970.94;;;11.83;100.00
73941;BME280;62294;48.554;10.202;2023-06-04T05:22:47;93010.00;;;12.32;100.00
73941;BME280;62294;48.554;10.202;2023-06-04T05:25:14;93056.72;;;12.82;100.00
73941;BME280;62294;48.554;10.202;2023-06-04T05:27:41;93199.69;;;13.00;100.00
73941;BME280;62294;48.554;10.202;2023-06-04T05:30:08;93317.00;;;13.36;100.00
73941;BME280;62294;48.554;10.202;2023-06-04T05:32:35;93462.41;;;14.32;100.00
73941;BME280;62294;48.554;10.202;2023-06-04T05:35:08;93566.13;;;16.06;100.00
73941;BME280;62294;48.554;10.202;2023-06-04T05:37:36;93915.06;;;17.17;100.00
73941;BME280;62294;48.554;10.202;2023-06-04T05:40:04;94343.38;;;18.48;100.00
73941;BME280;62294;48.554;10.202;2023-06-04T05:42:31;95043.06;;;18.32;100.00
73941;BME280;62294;48.554;10.202;2023-06-04T05:44:58;95331.06;;;18.46;100.00
73941;BME280;62294;48.554;10.202;2023-06-04T05:47:27;95539.97;;;19.52;100.00
73941;BME280;62294;48.554;10.202;2023-06-04T05:49:56;95735.88;;;20.14;100.00
73941;BME280;62294;48.554;10.202;2023-06-04T05:52:23;96054.00;;;20.59;100.00
73941;BME280;62294;48.554;10.202;2023-06-04T05:54:49;96146.25;;;21.72;100.00
73941;BME280;62294;48.554;10.202;2023-06-04T05:57:16;93324.34;;;21.12;100.00
73941;BME280;62294;48.554;10.202;2023-06-04T05:59:43;93236.31;;;21.27;100.00
73941;BME280;62294;48.554;10.202;2023-06-04T06:02:09;93109.19;;;21.39;100.00
73941;BME280;62294;48.554;10.202;2023-06-04T06:04:36;92964.44;;;22.10;100.00
73941;BME280;62294;48.554;10.202;2023-06-04T06:07:03;92811.72;;;22.33;100.00
73941;BME280;62294;48.554;10.202;2023-06-04T06:09:30;92814.22;;;22.86;100.00
73941;BME280;62294;48.554;10.202;2023-06-04T06:11:56;92808.63;;;23.66;100.00
73941;BME280;62294;48.554;10.202;2023-06-04T06:14:24;93627.63;;;24.12;100.00
73941;BME280;62294;48.554;10.202;2023-06-04T06:16:50;94483.72;;;23.29;100.00
73941;BME280;62294;48.554;10.202;2023-06-04T06:19:18;94520.19;;;22.67;100.00
73941;BME280;62294;48.554;10.202;2023-06-04T06:21:44;94569.03;;;22.29;100.00
73941;BME280;62294;48.554;10.202;2023-06-04T06:24:11;94605.34;;;22.48;100.00
73941;BME280;62294;48.554;10.202;2023-06-04T06:26:38;94577.22;;;20.93;100.00
73941;BME280;62294;48.554;10.202;2023-06-04T06:29:04;94458.75;;;19.98;100.00
73941;BME280;62294;48.554;10.202;2023-06-04T06:31:30;94436.53;;;21.24;100.00
73941;BME280;62294;48.554;10.202;2023-06-04T06:33:57;94551.56;;;21.80;100.00
73941;BME280;62294;48.554;10.202;2023-06-04T06:36:24;94798.38;;;23.54;100.00
73941;BME280;62294;48.554;10.202;2023-06-04T06:38:50;94919.34;;;24.58;100.00
73941;BME280;62294;48.554;10.202;2023-06-04T06:41:17;94947.63;;;23.95;100.00
73941;BME280;62294;48.554;10.202;2023-06-04T06:43:43;94923.25;;;24.48;100.00
73941;BME280;62294;48.554;10.202;2023-06-04T06:46:10;94860.72;;;22.06;100.00
73941;BME280;62294;48.554;10.202;2023-06-04T06:48:37;94868.25;;;24.19;100.00
73941;BME280;62294;48.554;10.202;2023-06-04T06:51:03;95059.13;;;25.22;100.00
73941;BME280;62294;48.554;10.202;2023-06-04T06:53:30;95048.91;;;23.78;100.00
73941;BME280;62294;48.554;10.202;2023-06-04T06:55:57;94931.88;;;22.15;100.00
73941;BME280;62294;48.554;10.202;2023-06-04T06:58:23;94985.56;;;23.28;100.00
73941;BME280;62294;48.554;10.202;2023-06-04T07:00:50;95089.34;;;25.42;100.00
73941;BME280;62294;48.554;10.202;2023-06-04T07:03:17;95134.41;;;24.60;100.00
73941;BME280;62294;48.554;10.202;2023-06-04T07:05:43;95046.56;;;22.79;100.00
73941;BME280;62294;48.554;10.202;2023-06-04T07:08:10;95188.03;;;25.42;100.00
73941;BME280;62294;48.554;10.202;2023-06-04T07:10:37;95240.88;;;25.20;100.00
73941;BME280;62294;48.554;10.202;2023-06-04T07:13:03;95260.34;;;24.64;100.00
73941;BME280;62294;48.554;10.202;2023-06-04T07:15:29;95295.19;;;24.62;100.00
73941;BME280;62294;48.554;10.202;2023-06-04T07:17:56;95302.97;;;24.81;100.00
73941;BME280;62294;48.554;10.202;2023-06-04T07:20:23;95360.91;;;25.69;100.00
73941;BME280;62294;48.554;10.202;2023-06-04T07:22:50;95355.00;;;24.45;100.00
73941;BME280;62294;48.554;10.202;2023-06-04T07:25:16;95367.91;;;24.65;100.00
73941;BME280;62294;48.554;10.202;2023-06-04T07:27:43;95380.34;;;25.59;100.00
73941;BME280;62294;48.554;10.202;2023-06-04T07:30:10;95394.66;;;24.46;100.00
73941;BME280;62294;48.554;10.202;2023-06-04T07:32:37;95392.09;;;24.24;100.00
73941;BME280;62294;48.554;10.202;2023-06-04T07:35:03;95418.41;;;25.29;100.00
73941;BME280;62294;48.554;10.202;2023-06-04T07:37:30;95480.13;;;26.54;100.00
73941;BME280;62294;48.554;10.202;2023-06-04T07:39:57;95507.31;;;27.49;100.00
73941;BME280;62294;48.554;10.202;2023-06-04T07:42:23;95548.19;;;29.34;100.00
73941;BME280;62294;48.554;10.202;2023-06-04T07:44:50;95569.97;;;28.27;100.00
73941;BME280;62294;48.554;10.202;2023-06-04T07:47:16;95575.16;;;27.18;100.00
73941;BME280;62294;48.554;10.202;2023-06-04T07:49:43;95563.59;;;26.38;100.00
73941;BME280;62294;48.554;10.202;2023-06-04T07:52:27;95596.00;;;26.31;100.00
73941;BME280;62294;48.554;10.202;2023-06-04T07:54:53;95526.78;;;24.42;100.00
73941;BME280;62294;48.554;10.202;2023-06-04T07:57:21;95568.59;;;25.61;100.00
73941;BME280;62294;48.554;10.202;2023-06-04T07:59:47;95521.28;;;23.60;100.00
73941;BME280;62294;48.554;10.202;2023-06-04T08:02:14;95545.53;;;26.54;100.00
73941;BME280;62294;48.554;10.202;2023-06-04T08:04:41;95615.66;;;26.08;100.00
73941;BME280;62294;48.554;10.202;2023-06-04T08:07:07;95572.66;;;24.52;100.00
73941;BME280;62294;48.554;10.202;2023-06-04T08:09:34;95566.06;;;23.18;100.00
73941;BME280;62294;48.554;10.202;2023-06-04T08:12:01;95627.28;;;22.75;100.00
73941;BME280;62294;48.554;10.202;2023-06-04T08:14:27;95905.66;;;23.37;100.00
73941;BME280;62294;48.554;10.202;2023-06-04T08:16:54;95827.56;;;22.39;100.00
73941;BME280;62294;48.554;10.202;2023-06-04T08:19:21;95900.22;;;23.51;100.00
73941;BME280;62294;48.554;10.202;2023-06-04T08:21:47;96019.34;;;25.17;100.00
73941;BME280;62294;48.554;10.202;2023-06-04T08:24:14;96020.34;;;27.37;100.00
73941;BME280;62294;48.554;10.202;2023-06-04T08:26:41;96025.59;;;27.51;100.00
73941;BME280;62294;48.554;10.202;2023-06-04T08:29:08;96032.94;;;26.69;100.00
73941;BME280;62294;48.554;10.202;2023-06-04T08:31:34;96025.53;;;27.13;100.00
73941;BME280;62294;48.554;10.202;2023-06-04T08:34:01;96028.53;;;25.61;100.00
73941;BME280;62294;48.554;10.202;2023-06-04T08:36:30;96035.88;;;24.41;100.00
73941;BME280;62294;48.554;10.202;2023-06-04T08:38:59;96026.59;;;26.00;100.00
73941;BME280;62294;48.554;10.202;2023-06-04T08:41:42;96032.41;;;25.60;100.00
73941;BME280;62294;48.554;10.202;2023-06-04T08:44:10;96022.69;;;26.84;100.00
73941;BME280;62294;48.554;10.202;2023-06-04T08:46:39;96043.03;;;24.95;100.00
73941;BME280;62294;48.554;10.202;2023-06-04T08:49:07;96036.25;;;23.71;100.00
73941;BME280;62294;48.554;10.202;2023-06-04T08:51:37;96033.09;;;24.90;100.00
73941;BME280;62294;48.554;10.202;2023-06-04T08:54:05;96019.59;;;26.34;100.00
73941;BME280;62294;48.554;10.202;2023-06-04T08:56:32;96034.03;;;26.43;100.00
73941;BME280;62294;48.554;10.202;2023-06-04T08:59:02;96026.91;;;27.82;100.00
73941;BME280;62294;48.554;10.202;2023-06-04T09:01:33;96036.00;;;26.85;100.00
73941;BME280;62294;48.554;10.202;2023-06-04T09:04:06;96039.38;;;27.54;100.00
73941;BME280;62294;48.554;10.202;2023-06-04T09:06:39;96040.75;;;28.65;100.00
73941;BME280;62294;48.554;10.202;2023-06-04T09:09:09;96042.84;;;26.14;100.00
73941;BME280;62294;48.554;10.202;2023-06-04T09:11:41;96040.78;;;26.28;100.00
73941;BME280;62294;48.554;10.202;2023-06-04T09:14:14;96055.34;;;24.92;100.00
73941;BME280;62294;48.554;10.202;2023-06-04T09:16:44;96031.50;;;26.89;100.00
73941;BME280;62294;48.554;10.202;2023-06-04T09:19:10;96037.09;;;28.61;100.00
73941;BME280;62294;48.554;10.202;2023-06-04T09:21:57;96026.56;;;27.92;100.00
73941;BME280;62294;48.554;10.202;2023-06-04T09:24:26;96033.72;;;28.05;100.00
73941;BME280;62294;48.554;10.202;2023-06-04T09:27:11;96017.56;;;29.48;100.00
73941;BME280;62294;48.554;10.202;2023-06-04T09:29:40;96025.63;;;30.38;100.00
73941;BME280;62294;48.554;10.202;2023-06-04T09:32:07;96041.56;;;29.19;100.00
73941;BME280;62294;48.554;10.202;2023-06-04T09:34:33;96040.41;;;28.66;100.00
73941;BME280;62294;48.554;10.202;2023-06-04T09:37:00;96021.53;;;30.72;100.00
73941;BME280;62294;48.554;10.202;2023-06-04T09:39:26;96016.69;;;31.36;100.00
73941;BME280;62294;48.554;10.202;2023-06-04T09:42:00;96032.69;;;30.03;100.00
73941;BME280;62294;48.554;10.202;2023-06-04T09:44:29;96025.50;;;30.47;100.00
73941;BME280;62294;48.554;10.202;2023-06-04T09:46:57;96031.00;;;30.23;100.00
73941;BME280;62294;48.554;10.202;2023-06-04T09:49:24;96030.16;;;28.84;100.00
73941;BME280;62294;48.554;10.202;2023-06-04T09:51:51;96024.91;;;29.57;100.00
73941;BME280;62294;48.554;10.202;2023-06-04T09:54:17;96026.09;;;29.92;100.00
73941;BME280;62294;48.554;10.202;2023-06-04T09:56:44;96021.38;;;30.16;100.00
73941;BME280;62294;48.554;10.202;2023-06-04T09:59:12;96026.66;;;29.28;100.00
73941;BME280;62294;48.554;10.202;2023-06-04T10:01:40;96021.50;;;30.20;100.00
73941;BME280;62294;48.554;10.202;2023-06-04T10:04:11;96013.16;;;30.29;100.00
73941;BME280;62294;48.554;10.202;2023-06-04T10:06:40;96031.38;;;29.40;100.00
73941;BME280;62294;48.554;10.202;2023-06-04T10:09:08;96024.88;;;29.44;100.00
73941;BME280;62294;48.554;10.202;2023-06-04T10:11:38;96041.53;;;28.45;100.00
73941;BME280;62294;48.554;10.202;2023-06-04T10:14:23;96025.09;;;29.39;100.00
73941;BME280;62294;48.554;10.202;2023-06-04T10:16:52;96040.97;;;27.64;100.00
73941;BME280;62294;48.554;10.202;2023-06-04T10:19:21;96042.41;;;26.98;100.00
73941;BME280;62294;48.554;10.202;2023-06-04T10:21:47;96033.47;;;27.90;100.00
73941;BME280;62294;48.554;10.202;2023-06-04T10:24:15;96041.94;;;28.05;100.00
73941;BME280;62294;48.554;10.202;2023-06-04T10:26:42;96039.88;;;28.73;100.00
73941;BME280;62294;48.554;10.202;2023-06-04T10:29:09;96015.66;;;30.85;100.00
73941;BME280;62294;48.554;10.202;2023-06-04T10:31:37;96024.03;;;30.01;100.00
73941;BME280;62294;48.554;10.202;2023-06-04T10:34:03;96029.53;;;29.89;100.00
73941;BME280;62294;48.554;10.202;2023-06-04T10:36:30;96031.56;;;28.20;100.00
73941;BME280;62294;48.554;10.202;2023-06-04T10:38:56;96046.00;;;27.53;100.00
73941;BME280;62294;48.554;10.202;2023-06-04T10:41:23;96049.63;;;27.02;100.00
73941;BME280;62294;48.554;10.202;2023-06-04T10:43:59;96035.56;;;28.22;100.00
73941;BME280;62294;48.554;10.202;2023-06-04T10:46:37;96021.47;;;29.47;100.00
73941;BME280;62294;48.554;10.202;2023-06-04T10:49:09;96019.34;;;30.01;100.00
73941;BME280;62294;48.554;10.202;2023-06-04T10:51:36;96034.19;;;28.99;100.00
73941;BME280;62294;48.554;10.202;2023-06-04T10:54:05;96038.09;;;29.10;100.00
73941;BME280;62294;48.554;10.202;2023-06-04T10:56:34;96024.50;;;29.91;100.00
73941;BME280;62294;48.554;10.202;2023-06-04T10:59:17;96012.91;;;30.98;100.00
73941;BME280;62294;48.554;10.202;2023-06-04T11:01:45;96033.31;;;29.07;100.00
73941;BME280;62294;48.554;10.202;2023-06-04T11:04:38;96028.06;;;28.81;100.00
73941;BME280;62294;48.554;10.202;2023-06-04T11:07:06;96019.09;;;29.70;100.00
73941;BME280;62294;48.554;10.202;2023-06-04T11:09:37;96031.16;;;29.45;100.00
73941;BME280;62294;48.554;10.202;2023-06-04T11:12:05;96032.28;;;29.32;100.00
73941;BME280;62294;48.554;10.202;2023-06-04T11:14:32;96023.69;;;30.14;100.00
73941;BME280;62294;48.554;10.202;2023-06-04T11:17:11;96020.44;;;30.61;100.00
73941;BME280;62294;48.554;10.202;2023-06-04T11:19:38;96033.22;;;28.62;100.00
73941;BME280;62294;48.554;10.202;2023-06-04T11:22:05;96026.13;;;29.14;100.00
73941;BME280;62294;48.554;10.202;2023-06-04T11:24:32;96028.34;;;28.88;100.00
73941;BME280;62294;48.554;10.202;2023-06-04T11:26:59;96030.25;;;27.50;100.00
73941;BME280;62294;48.554;10.202;2023-06-04T11:29:43;96029.97;;;27.81;100.00
73941;BME280;62294;48.554;10.202;2023-06-04T11:32:09;96032.75;;;26.15;100.00
73941;BME280;62294;48.554;10.202;2023-06-04T11:34:36;96052.81;;;24.60;100.00
73941;BME280;62294;48.554;10.202;2023-06-04T11:37:10;96049.47;;;24.99;100.00
73941;BME280;62294;48.554;10.202;2023-06-04T11:39:37;96027.50;;;26.69;100.00
73941;BME280;62294;48.554;10.202;2023-06-04T11:42:06;96028.03;;;27.35;100.00
73941;BME280;62294;48.554;10.202;2023-06-04T11:44:33;95999.16;;;29.82;100.00
73941;BME280;62294;48.554;10.202;2023-06-04T11:47:00;96004.28;;;29.95;100.00
73941;BME280;62294;48.554;10.202;2023-06-04T11:49:30;96005.84;;;29.48;100.00
73941;BME280;62294;48.554;10.202;2023-06-04T11:51:57;95999.00;;;30.39;100.00
73941;BME280;62294;48.554;10.202;2023-06-04T11:54:24;96003.72;;;30.02;100.00
73941;BME280;62294;48.554;10.202;2023-06-04T11:56:51;96014.00;;;29.93;100.00
73941;BME280;62294;48.554;10.202;2023-06-04T11:59:18;95999.50;;;29.23;100.00
73941;BME280;62294;48.554;10.202;2023-06-04T12:01:46;96008.47;;;29.57;100.00
73941;BME280;62294;48.554;10.202;2023-06-04T12:04:19;95999.88;;;29.34;100.00
73941;BME280;62294;48.554;10.202;2023-06-04T12:07:05;96021.50;;;25.60;100.00
73941;BME280;62294;48.554;10.202;2023-06-04T12:09:33;96033.34;;;24.66;100.00
73941;BME280;62294;48.554;10.202;2023-06-04T12:12:06;96040.34;;;24.37;100.00
73941;BME280;62294;48.554;10.202;2023-06-04T12:14:33;96035.31;;;25.72;100.00
73941;BME280;62294;48.554;10.202;2023-06-04T12:17:01;96019.78;;;26.89;100.00
73941;BME280;62294;48.554;10.202;2023-06-04T12:19:28;96015.22;;;28.61;100.00
73941;BME280;62294;48.554;10.202;2023-06-04T12:22:13;95999.81;;;30.27;100.00
73941;BME280;62294;48.554;10.202;2023-06-04T12:24:48;95998.72;;;29.35;100.00
73941;BME280;62294;48.554;10.202;2023-06-04T12:27:15;96027.72;;;25.60;100.00
73941;BME280;62294;48.554;10.202;2023-06-04T12:29:42;96025.69;;;25.04;100.00
73941;BME280;62294;48.554;10.202;2023-06-04T12:32:20;96017.53;;;27.08;100.00
73941;BME280;62294;48.554;10.202;2023-06-04T12:34:47;96008.31;;;28.75;100.00
73941;BME280;62294;48.554;10.202;2023-06-04T12:37:14;95987.22;;;29.41;100.00
73941;BME280;62294;48.554;10.202;2023-06-04T12:39:40;96003.53;;;29.05;100.00
73941;BME280;62294;48.554;10.202;2023-06-04T12:42:07;95997.19;;;27.52;100.00
73941;BME280;62294;48.554;10.202;2023-06-04T12:44:38;96001.75;;;27.97;100.00
73941;BME280;62294;48.554;10.202;2023-06-04T12:47:07;95997.97;;;27.90;100.00
73941;BME280;62294;48.554;10.202;2023-06-04T12:49:34;95992.94;;;29.61;100.00
73941;BME280;62294;48.554;10.202;2023-06-04T12:52:00;95967.81;;;31.73;100.00